createdAt,value
2019-05-25T00:02:28.256Z,15.90
2019-05-25T00:05:53.923Z,15.95
2019-05-25T00:09:19.591Z,15.93
2019-05-25T00:12:45.186Z,15.72
2019-05-25T00:16:10.777Z,15.69
2019-05-25T00:19:36.379Z,15.64
2019-05-25T00:23:02.940Z,15.66
2019-05-25T00:26:28.565Z,15.65
2019-05-25T00:29:54.382Z,15.67
2019-05-25T00:33:20.949Z,15.66
2019-05-25T00:36:46.852Z,15.79
2019-05-25T00:40:13.029Z,15.63
2019-05-25T00:43:38.642Z,15.67
2019-05-25T00:47:04.332Z,15.39
2019-05-25T00:50:29.926Z,15.30
2019-05-25T00:53:55.526Z,15.23
2019-05-25T00:57:21.123Z,15.26
2019-05-25T01:00:46.750Z,15.32
2019-05-25T01:04:12.334Z,15.43
2019-05-25T01:07:37.928Z,15.29
2019-05-25T01:11:03.580Z,15.36
2019-05-25T01:14:29.172Z,15.25
2019-05-25T01:17:54.765Z,15.33
2019-05-25T01:21:20.362Z,15.26
2019-05-25T01:24:45.977Z,15.26
2019-05-25T01:28:11.982Z,15.37
2019-05-25T01:31:37.576Z,15.34
2019-05-25T01:35:05.288Z,15.31
2019-05-25T01:38:30.971Z,15.37
2019-05-25T01:41:56.566Z,15.38
2019-05-25T01:45:22.158Z,15.26
2019-05-25T01:48:47.746Z,15.09
2019-05-25T01:52:13.333Z,15.08
2019-05-25T01:55:38.974Z,14.90
2019-05-25T01:59:04.628Z,14.72
2019-05-25T02:02:30.741Z,14.61
2019-05-25T02:05:56.328Z,14.63
2019-05-25T02:09:22.179Z,14.65
2019-05-25T02:12:47.835Z,14.64
2019-05-25T02:16:13.442Z,14.32
2019-05-25T02:19:39.027Z,14.29
2019-05-25T02:23:04.642Z,14.26
2019-05-25T02:26:30.235Z,14.13
2019-05-25T02:29:55.840Z,14.05
2019-05-25T02:33:21.433Z,14.02
2019-05-25T02:36:47.023Z,13.80
2019-05-25T02:40:12.821Z,13.71
2019-05-25T02:43:38.609Z,13.77
2019-05-25T02:47:04.290Z,13.88
2019-05-25T02:50:29.899Z,13.79
2019-05-25T02:53:55.487Z,13.64
2019-05-25T02:57:21.104Z,13.65
2019-05-25T03:00:46.738Z,13.61
2019-05-25T03:04:12.583Z,13.63
2019-05-25T03:07:40.223Z,13.50
2019-05-25T03:11:05.986Z,13.39
2019-05-25T03:14:31.898Z,13.32
2019-05-25T03:17:57.482Z,13.14
2019-05-25T03:21:23.557Z,13.07
2019-05-25T03:24:49.143Z,13.22
2019-05-25T03:28:15.722Z,13.28
2019-05-25T03:31:41.308Z,13.05
2019-05-25T03:35:08.328Z,13.11
2019-05-25T03:38:33.908Z,12.86
2019-05-25T03:41:59.589Z,12.84
2019-05-25T03:45:25.182Z,12.82
2019-05-25T03:48:50.817Z,12.64
2019-05-25T03:52:16.394Z,12.65
2019-05-25T03:55:41.986Z,12.53
2019-05-25T03:59:07.645Z,12.84
2019-05-25T04:02:33.244Z,12.71
2019-05-25T04:05:58.827Z,12.52
2019-05-25T04:09:24.415Z,12.53
2019-05-25T04:12:50.031Z,12.39
2019-05-25T04:16:15.626Z,12.39
2019-05-25T04:19:41.478Z,12.44
2019-05-25T04:23:07.060Z,12.47
2019-05-25T04:26:32.666Z,12.41
2019-05-25T04:29:58.252Z,12.43
2019-05-25T04:33:23.875Z,12.46
2019-05-25T04:36:49.467Z,12.56
2019-05-25T04:40:15.257Z,12.66
2019-05-25T04:43:40.856Z,12.51
2019-05-25T04:47:06.445Z,12.48
2019-05-25T04:50:32.060Z,12.40
2019-05-25T04:53:58.702Z,12.50
2019-05-25T04:57:24.294Z,12.44
2019-05-25T05:00:49.892Z,12.51
2019-05-25T05:04:15.474Z,12.36
2019-05-25T05:07:41.063Z,12.42
2019-05-25T05:11:06.838Z,12.68
2019-05-25T05:14:32.491Z,12.83
2019-05-25T05:17:58.049Z,13.10
2019-05-25T05:21:23.699Z,13.19
2019-05-25T05:24:49.292Z,13.24
2019-05-25T05:28:14.898Z,13.42
2019-05-25T05:31:40.564Z,13.40
2019-05-25T05:35:08.611Z,13.40
2019-05-25T05:38:36.017Z,13.46
2019-05-25T05:42:04.348Z,13.61
2019-05-25T05:45:33.635Z,13.56
2019-05-25T05:48:59.475Z,13.68
2019-05-25T05:52:29.476Z,13.75
2019-05-25T05:55:55.083Z,13.78
2019-05-25T05:59:20.675Z,13.70
2019-05-25T06:02:46.284Z,13.94
2019-05-25T06:06:11.874Z,13.88
2019-05-25T06:09:37.974Z,14.09
2019-05-25T06:13:03.563Z,14.09
2019-05-25T06:16:29.494Z,14.16
2019-05-25T06:19:55.090Z,14.18
2019-05-25T06:23:20.697Z,14.22
2019-05-25T06:26:46.281Z,14.25
2019-05-25T06:30:13.188Z,14.42
2019-05-25T06:33:38.828Z,14.63
2019-05-25T06:37:04.420Z,14.70
2019-05-25T06:40:30.029Z,14.83
2019-05-25T06:43:55.628Z,15.05
2019-05-25T06:47:21.227Z,15.38
2019-05-25T06:50:46.850Z,15.30
2019-05-25T06:54:12.452Z,15.38
2019-05-25T06:57:43.143Z,15.57
2019-05-25T07:01:05.543Z,15.58
2019-05-25T07:04:31.151Z,15.73
2019-05-25T07:07:56.754Z,15.79
2019-05-25T07:11:22.345Z,15.66
2019-05-25T07:14:47.965Z,15.61
2019-05-25T07:18:14.521Z,15.53
2019-05-25T07:21:40.128Z,15.60
2019-05-25T07:25:09.543Z,15.58
2019-05-25T07:28:35.140Z,15.67
2019-05-25T07:32:00.730Z,15.89
2019-05-25T07:35:26.339Z,15.76
2019-05-25T07:38:51.947Z,15.82
2019-05-25T07:42:19.973Z,15.96
2019-05-25T07:45:45.081Z,15.86
2019-05-25T07:49:10.675Z,16.01
2019-05-25T07:52:36.287Z,16.18
2019-05-25T07:56:01.880Z,16.34
2019-05-25T07:59:27.490Z,16.43
2019-05-25T08:02:53.077Z,16.55
2019-05-25T08:06:18.676Z,16.74
2019-05-25T08:09:44.287Z,16.81
2019-05-25T08:13:09.915Z,16.96
2019-05-25T08:16:35.519Z,17.16
2019-05-25T08:20:01.107Z,17.38
2019-05-25T08:23:26.737Z,17.26
2019-05-25T08:26:52.293Z,17.04
2019-05-25T08:30:18.102Z,16.98
2019-05-25T08:33:43.697Z,17.26
2019-05-25T08:37:09.304Z,17.76
2019-05-25T08:40:34.891Z,18.43
2019-05-25T08:44:04.292Z,18.76
2019-05-25T08:47:27.870Z,18.95
2019-05-25T08:50:53.492Z,19.29
2019-05-25T08:54:19.076Z,19.42
2019-05-25T08:57:44.688Z,19.26
2019-05-25T09:01:10.304Z,19.64
2019-05-25T09:04:35.899Z,19.46
2019-05-25T09:08:01.499Z,19.17
2019-05-25T09:11:27.131Z,18.98
2019-05-25T09:14:52.774Z,18.98
2019-05-25T09:18:19.355Z,18.98
2019-05-25T09:22:00.997Z,19.09
2019-05-25T09:25:12.435Z,19.12
2019-05-25T09:28:38.038Z,19.29
2019-05-25T09:32:06.848Z,19.32
2019-05-25T09:35:30.930Z,19.41
2019-05-25T09:38:56.535Z,19.61
2019-05-25T09:42:22.126Z,19.80
2019-05-25T09:45:47.725Z,19.71
2019-05-25T09:49:13.333Z,19.61
2019-05-25T09:52:38.927Z,19.73
2019-05-25T09:56:04.687Z,19.72
2019-05-25T09:59:31.320Z,19.70
2019-05-25T10:02:56.924Z,19.78
2019-05-25T10:06:22.518Z,19.88
2019-05-25T10:09:48.129Z,20.10
2019-05-25T10:13:14.015Z,20.48
2019-05-25T10:16:39.623Z,20.67
2019-05-25T10:20:06.722Z,21.00
2019-05-25T10:23:33.068Z,21.48
2019-05-25T10:26:58.646Z,21.97
2019-05-25T10:30:24.911Z,22.30
2019-05-25T10:33:50.726Z,22.41
2019-05-25T10:37:16.319Z,22.69
2019-05-25T10:40:41.918Z,22.90
2019-05-25T10:44:07.663Z,23.42
2019-05-25T10:47:33.259Z,23.39
2019-05-25T10:50:58.868Z,23.60
2019-05-25T10:54:24.455Z,23.97
2019-05-25T10:57:50.070Z,23.88
2019-05-25T11:01:15.660Z,24.04
2019-05-25T11:04:41.298Z,24.12
2019-05-25T11:08:06.883Z,23.99
2019-05-25T11:11:32.487Z,23.73
2019-05-25T11:14:58.090Z,23.70
2019-05-25T11:18:23.683Z,23.66
2019-05-25T11:21:49.696Z,23.65
2019-05-25T11:25:16.250Z,23.26
2019-05-25T11:28:41.872Z,23.49
2019-05-25T11:32:07.752Z,23.59
2019-05-25T11:35:33.887Z,22.97
2019-05-25T11:38:59.812Z,22.75
2019-05-25T11:42:25.464Z,23.18
2019-05-25T11:45:51.091Z,23.33
2019-05-25T11:49:22.472Z,22.85
2019-05-25T11:52:44.413Z,21.95
2019-05-25T11:56:09.994Z,21.99
2019-05-25T11:59:35.604Z,22.50
2019-05-25T12:03:01.190Z,22.58
2019-05-25T12:06:26.832Z,22.88
2019-05-25T12:09:52.441Z,22.73
2019-05-25T12:13:18.038Z,23.29
2019-05-25T12:16:43.632Z,23.19
2019-05-25T12:20:10.294Z,23.92
2019-05-25T12:23:35.857Z,24.08
2019-05-25T12:27:01.931Z,24.24
2019-05-25T12:30:40.368Z,24.24
2019-05-25T12:33:55.330Z,23.37
2019-05-25T12:37:20.925Z,22.21
2019-05-25T12:40:53.645Z,20.84
2019-05-25T12:44:15.498Z,19.59
2019-05-25T12:47:41.138Z,19.13
2019-05-25T12:51:07.628Z,19.14
2019-05-25T12:54:33.908Z,19.12
2019-05-25T12:57:59.490Z,19.01
2019-05-25T13:01:25.097Z,19.63
2019-05-25T13:04:50.725Z,20.27
2019-05-25T13:08:16.340Z,20.52
2019-05-25T13:11:42.447Z,20.71
2019-05-25T13:15:08.833Z,21.47
2019-05-25T13:18:34.421Z,21.15
2019-05-25T13:22:00.502Z,21.08
2019-05-25T13:25:26.131Z,21.40
2019-05-25T13:28:52.766Z,21.61
2019-05-25T13:32:18.730Z,21.25
2019-05-25T13:35:44.352Z,21.69
2019-05-25T13:39:09.943Z,21.92
2019-05-25T13:42:35.668Z,23.15
2019-05-25T13:46:01.275Z,23.27
2019-05-25T13:49:27.835Z,22.82
2019-05-25T13:52:53.426Z,23.38
2019-05-25T13:56:19.074Z,23.27
2019-05-25T13:59:44.619Z,21.92
2019-05-25T14:03:11.234Z,23.47
2019-05-25T14:06:36.796Z,24.36
2019-05-25T14:10:02.401Z,24.78
2019-05-25T14:13:28.263Z,26.47
2019-05-25T14:16:54.127Z,27.14
2019-05-25T14:20:20.130Z,25.89
2019-05-25T14:23:45.747Z,24.86
2019-05-25T14:27:11.403Z,22.90
2019-05-25T14:30:37.082Z,22.44
2019-05-25T14:34:02.670Z,22.79
2019-05-25T14:37:28.286Z,23.88
2019-05-25T14:40:53.878Z,23.28
2019-05-25T14:44:20.565Z,24.78
2019-05-25T14:47:46.175Z,25.97
2019-05-25T14:51:11.790Z,24.71
2019-05-25T14:54:37.402Z,24.98
2019-05-25T14:58:03.166Z,25.78
2019-05-25T15:01:28.782Z,26.92
2019-05-25T15:04:55.210Z,29.01
2019-05-25T15:08:20.811Z,30.91
2019-05-25T15:11:46.454Z,31.26
2019-05-25T15:15:13.716Z,30.24
2019-05-25T15:18:39.344Z,31.78
2019-05-25T15:22:05.484Z,31.97
2019-05-25T15:25:31.536Z,30.41
2019-05-25T15:28:57.371Z,30.51
2019-05-25T15:32:23.282Z,31.30
2019-05-25T15:35:48.977Z,32.37
2019-05-25T15:39:14.633Z,31.83
2019-05-25T15:42:41.915Z,29.97
2019-05-25T15:46:07.796Z,29.61
2019-05-25T15:49:33.956Z,29.89
2019-05-25T15:52:59.707Z,29.73
2019-05-25T15:56:25.296Z,33.43
2019-05-25T15:59:50.942Z,34.74
2019-05-25T16:03:18.851Z,34.75
2019-05-25T16:06:45.443Z,35.18
2019-05-25T16:10:12.373Z,35.04
2019-05-25T16:13:38.131Z,34.18
2019-05-25T16:17:03.897Z,34.70
2019-05-25T16:20:29.521Z,33.38
2019-05-25T16:23:55.111Z,35.01
2019-05-25T16:27:20.712Z,35.26
2019-05-25T16:30:46.310Z,30.62
2019-05-25T16:34:11.921Z,27.57
2019-05-25T16:37:37.903Z,25.44
2019-05-25T16:41:03.969Z,24.72
2019-05-25T16:44:29.562Z,28.35
2019-05-25T16:47:55.165Z,29.81
2019-05-25T16:51:21.823Z,33.40
2019-05-25T16:54:47.449Z,34.46
2019-05-25T16:58:13.037Z,32.16
2019-05-25T17:01:48.194Z,27.50
2019-05-25T17:05:07.520Z,26.91
2019-05-25T17:08:33.160Z,31.36
2019-05-25T17:11:58.738Z,33.18
2019-05-25T17:15:25.476Z,33.90
2019-05-25T17:18:51.073Z,34.41
2019-05-25T17:22:16.683Z,32.46
2019-05-25T17:25:42.270Z,28.27
2019-05-25T17:29:08.228Z,26.84
2019-05-25T17:32:33.828Z,25.39
2019-05-25T17:35:59.431Z,27.65
2019-05-25T17:39:25.019Z,26.69
2019-05-25T17:42:50.632Z,25.04
2019-05-25T17:46:16.240Z,24.27
2019-05-25T17:49:42.137Z,23.34
2019-05-25T17:53:07.733Z,26.68
2019-05-25T17:56:33.333Z,27.58
2019-05-25T17:59:59.731Z,27.57
2019-05-25T18:03:26.785Z,25.67
2019-05-25T18:06:52.435Z,23.91
2019-05-25T18:10:18.216Z,22.88
2019-05-25T18:13:43.808Z,22.31
2019-05-25T18:17:09.439Z,21.80
2019-05-25T18:20:35.184Z,21.24
2019-05-25T18:24:00.899Z,20.93
2019-05-25T18:27:26.491Z,21.11
2019-05-25T18:30:52.103Z,22.00
2019-05-25T18:34:21.970Z,21.97
2019-05-25T18:37:44.997Z,21.82
2019-05-25T18:41:10.591Z,21.37
2019-05-25T18:44:36.209Z,20.18
2019-05-25T18:48:01.812Z,20.25
2019-05-25T18:51:27.421Z,19.72
2019-05-25T18:54:53.017Z,19.34
2019-05-25T18:58:18.608Z,19.34
2019-05-25T19:01:44.210Z,18.92
2019-05-25T19:05:10.356Z,18.85
2019-05-25T19:08:36.005Z,18.87
2019-05-25T19:12:02.073Z,18.97
2019-05-25T19:15:27.839Z,18.82
2019-05-25T19:18:53.450Z,19.10
2019-05-25T19:22:19.047Z,19.10
2019-05-25T19:25:44.667Z,18.86
2019-05-25T19:29:10.361Z,18.79
2019-05-25T19:32:35.996Z,18.73
2019-05-25T19:36:01.563Z,18.52
2019-05-25T19:39:27.355Z,18.47
2019-05-25T19:42:52.940Z,18.38
2019-05-25T19:46:18.628Z,18.20
2019-05-25T19:49:45.288Z,18.11
2019-05-25T19:53:10.896Z,18.18
2019-05-25T19:56:36.486Z,18.08
2019-05-25T20:00:02.511Z,17.94
2019-05-25T20:03:28.298Z,17.85
2019-05-25T20:06:53.896Z,17.80
2019-05-25T20:10:20.388Z,17.72
2019-05-25T20:13:45.997Z,17.67
2019-05-25T20:17:11.587Z,17.70
2019-05-25T20:20:37.189Z,17.72
2019-05-25T20:24:02.834Z,17.64
2019-05-25T20:27:28.474Z,17.52
2019-05-25T20:30:54.080Z,17.56
2019-05-25T20:34:19.677Z,17.55
2019-05-25T20:37:45.357Z,17.32
2019-05-25T20:41:10.948Z,17.14
2019-05-25T20:44:36.556Z,16.97
2019-05-25T20:48:02.174Z,16.97
2019-05-25T20:51:27.830Z,16.97
2019-05-25T20:54:53.475Z,16.92
2019-05-25T20:58:19.063Z,16.91
2019-05-25T21:01:44.668Z,17.01
2019-05-25T21:05:10.555Z,16.94
2019-05-25T21:08:36.145Z,17.03
2019-05-25T21:12:01.741Z,16.96
2019-05-25T21:15:27.354Z,16.92
2019-05-25T21:18:52.947Z,16.69
2019-05-25T21:22:19.964Z,16.44
2019-05-25T21:25:46.190Z,16.18
2019-05-25T21:29:11.785Z,16.27
2019-05-25T21:32:37.452Z,16.23
2019-05-25T21:36:08.740Z,16.15
2019-05-25T21:39:30.367Z,16.05
2019-05-25T21:42:55.975Z,16.03
2019-05-25T21:46:21.734Z,15.76
2019-05-25T21:49:47.375Z,15.74
2019-05-25T21:53:12.997Z,15.77
2019-05-25T21:56:38.644Z,15.59
2019-05-25T22:00:08.177Z,15.62
2019-05-25T22:03:34.974Z,15.53
2019-05-25T22:07:00.641Z,15.42
2019-05-25T22:10:27.305Z,15.38
2019-05-25T22:13:52.894Z,15.37
2019-05-25T22:17:18.486Z,15.32
2019-05-25T22:20:44.078Z,15.18
2019-05-25T22:24:09.967Z,15.15
2019-05-25T22:27:35.557Z,15.06
2019-05-25T22:31:01.167Z,15.02
2019-05-25T22:34:26.753Z,14.79
2019-05-25T22:37:52.351Z,14.79
2019-05-25T22:41:19.977Z,14.43
2019-05-25T22:44:45.250Z,14.23
2019-05-25T22:48:10.837Z,14.21
2019-05-25T22:51:36.447Z,14.15
2019-05-25T22:55:02.265Z,14.13
2019-05-25T22:58:28.226Z,14.03
2019-05-25T23:01:53.824Z,14.20
2019-05-25T23:05:19.501Z,14.08
2019-05-25T23:08:45.114Z,13.88
2019-05-25T23:12:10.713Z,13.85
2019-05-25T23:15:36.298Z,13.82
2019-05-25T23:19:01.900Z,13.69
2019-05-25T23:22:27.501Z,13.80
2019-05-25T23:25:53.111Z,13.88
2019-05-25T23:29:18.693Z,13.76
2019-05-25T23:32:44.278Z,13.50
2019-05-25T23:36:09.866Z,13.51
2019-05-25T23:39:35.523Z,13.38
2019-05-25T23:43:01.119Z,13.42
2019-05-25T23:46:26.707Z,13.31
2019-05-25T23:49:52.315Z,13.09
2019-05-25T23:53:17.895Z,12.98
2019-05-25T23:56:43.493Z,12.93
